createdAt,value
2018-08-28T00:00:42.719Z,15.6
2018-08-28T00:05:45.041Z,15.6
2018-08-28T00:20:52.555Z,15.5
2018-08-28T00:25:55.153Z,15.4
2018-08-28T00:30:57.220Z,15.4
2018-08-28T00:36:06.998Z,15.4
2018-08-28T00:41:02.200Z,15.4
2018-08-28T00:46:05.049Z,15.4
2018-08-28T00:51:06.977Z,15.5
2018-08-28T01:01:11.983Z,15.6
2018-08-28T01:11:16.744Z,15.6
2018-08-28T01:16:19.187Z,15.6
2018-08-28T01:21:21.650Z,15.6
2018-08-28T01:26:24.076Z,15.6
2018-08-28T01:31:26.518Z,15.6
2018-08-28T01:36:28.962Z,15.6
2018-08-28T01:41:31.421Z,15.6
2018-08-28T01:46:33.827Z,15.6
2018-08-28T01:51:36.292Z,15.6
2018-08-28T01:56:38.717Z,15.6
2018-08-28T02:16:48.474Z,15.6
2018-08-28T02:21:51.004Z,15.6
2018-08-28T02:26:53.366Z,15.5
2018-08-28T02:31:55.809Z,15.5
2018-08-28T02:36:58.238Z,15.5
2018-08-28T02:42:00.794Z,15.5
2018-08-28T02:47:03.143Z,15.5
2018-08-28T02:52:05.587Z,15.5
2018-08-28T02:57:08.035Z,15.5
2018-08-28T03:02:10.463Z,15.4
2018-08-28T03:07:14.706Z,15.4
2018-08-28T03:12:15.464Z,15.4
2018-08-28T03:17:17.785Z,15.3
2018-08-28T03:22:20.219Z,15.3
2018-08-28T03:27:22.936Z,15.3
2018-08-28T03:32:25.111Z,15.3
2018-08-28T03:37:27.537Z,15.3
2018-08-28T03:42:29.958Z,15.2
2018-08-28T03:47:32.412Z,15.2
2018-08-28T03:52:34.900Z,15.2
2018-08-28T03:57:37.318Z,15.2
2018-08-28T04:02:39.741Z,15.2
2018-08-28T04:07:42.426Z,15.1
2018-08-28T04:12:44.724Z,15.1
2018-08-28T04:17:47.396Z,15.1
2018-08-28T04:22:49.551Z,15.1
2018-08-28T04:27:52.107Z,15.1
2018-08-28T04:32:54.937Z,15.1
2018-08-28T04:37:57.016Z,15.1
2018-08-28T04:42:59.377Z,15.1
2018-08-28T04:48:02.053Z,15.1
2018-08-28T04:53:04.190Z,15.1
2018-08-28T04:58:06.812Z,15.2
2018-08-28T05:03:09.067Z,15.2
2018-08-28T05:13:13.957Z,15.2
2018-08-28T05:18:16.386Z,15.3
2018-08-28T05:23:18.808Z,15.4
2018-08-28T05:28:21.269Z,15.4
2018-08-28T05:33:23.667Z,15.4
2018-08-28T05:38:26.128Z,15.5
2018-08-28T05:43:28.564Z,15.5
2018-08-28T05:48:31.013Z,15.6
2018-08-28T05:58:35.868Z,15.6
2018-08-28T06:03:38.310Z,15.6
2018-08-28T06:08:40.962Z,15.6
2018-08-28T06:13:43.206Z,15.7
2018-08-28T06:18:45.650Z,15.7
2018-08-28T06:33:53.065Z,15.9
2018-08-28T06:38:55.427Z,15.9
2018-08-28T06:43:57.925Z,16
2018-08-28T06:49:00.317Z,16.1
2018-08-28T06:59:06.101Z,16.2
2018-08-28T07:04:09.892Z,16.3
2018-08-28T07:09:10.224Z,16.4
2018-08-28T07:14:12.628Z,16.5
2018-08-28T07:19:14.903Z,16.5
2018-08-28T07:24:17.358Z,16.5
2018-08-28T07:29:19.800Z,16.6
2018-08-28T07:34:22.317Z,16.7
2018-08-28T07:39:24.673Z,16.8
2018-08-28T07:44:27.115Z,16.9
2018-08-28T07:49:29.691Z,16.9
2018-08-28T07:54:32.017Z,16.9
2018-08-28T07:59:34.519Z,16.8
2018-08-28T08:04:37.000Z,16.9
2018-08-28T08:09:39.455Z,17.1
2018-08-28T08:14:41.766Z,17.3
2018-08-28T08:19:44.326Z,17.4
2018-08-28T08:24:49.119Z,17.3
2018-08-28T08:29:49.216Z,17.4
2018-08-28T08:34:51.552Z,17.6
2018-08-28T08:39:53.975Z,17.9
2018-08-28T08:49:58.847Z,17.8
2018-08-28T08:55:02.301Z,17.5
2018-08-28T09:05:06.178Z,17.3
2018-08-28T09:10:09.023Z,17.5
2018-08-28T09:15:11.143Z,17.6
2018-08-28T09:20:13.513Z,17.7
2018-08-28T09:25:16.008Z,17.7
2018-08-28T09:30:18.420Z,17.8
2018-08-28T09:35:20.939Z,17.8
2018-08-28T09:45:25.706Z,18.2
2018-08-28T09:50:28.185Z,18.4
2018-08-28T09:55:30.593Z,18.6
2018-08-28T10:10:37.908Z,18.6
2018-08-28T10:15:40.356Z,18.7
2018-08-28T10:25:45.217Z,19.2
2018-08-28T10:35:50.100Z,19.5
2018-08-28T10:40:53.355Z,19.8
2018-08-28T10:45:55.060Z,19.7
2018-08-28T11:01:02.332Z,19
2018-08-28T11:06:04.762Z,19.1
2018-08-28T11:21:12.129Z,20.1
2018-08-28T11:36:19.588Z,21.9
2018-08-28T11:56:29.662Z,22.4
2018-08-28T12:01:31.774Z,22.1
2018-08-28T12:06:34.220Z,22.1
2018-08-28T12:11:36.519Z,21.9
2018-08-28T12:16:38.945Z,21.9
2018-08-28T12:26:43.968Z,22.1
2018-08-28T12:31:46.322Z,22.1
2018-08-28T12:36:48.785Z,22.8
2018-08-28T12:41:51.236Z,23.9
2018-08-28T12:56:58.496Z,23.2
2018-08-28T13:02:01.035Z,23.2
2018-08-28T13:22:10.665Z,23.4
2018-08-28T13:27:13.114Z,24.2
2018-08-28T13:37:17.994Z,25.3
2018-08-28T13:42:20.421Z,26.5
2018-08-28T13:47:22.891Z,28.2
2018-08-28T13:52:25.320Z,29.6
2018-08-28T14:02:30.303Z,31.2
2018-08-28T14:07:32.663Z,30.1
2018-08-28T14:12:35.101Z,29.1
2018-08-28T14:17:37.533Z,29.5
2018-08-28T14:27:42.600Z,31.7
2018-08-28T14:32:44.872Z,32.2
2018-08-28T14:42:49.763Z,32
2018-08-28T14:47:52.182Z,33
2018-08-28T14:57:57.089Z,33.9
2018-08-28T15:03:00.952Z,34.1
2018-08-28T15:08:02.059Z,33.9
2018-08-28T15:18:06.859Z,33.6
2018-08-28T15:23:09.305Z,33.7
2018-08-28T15:28:11.947Z,34.2
2018-08-28T15:33:14.423Z,34.4
2018-08-28T15:38:16.876Z,34.2
2018-08-28T15:43:19.132Z,34.1
2018-08-28T15:48:21.499Z,34.1
2018-08-28T15:58:26.372Z,34.3
2018-08-28T16:03:28.815Z,34
2018-08-28T16:08:31.520Z,33.7
2018-08-28T16:13:33.703Z,33.5
2018-08-28T16:18:36.252Z,33.1
2018-08-28T16:23:38.651Z,32.3
2018-08-28T16:28:41.736Z,30.9
2018-08-28T16:33:43.531Z,28.9
2018-08-28T16:38:46.026Z,27.5
2018-08-28T16:43:48.426Z,26.4
2018-08-28T16:48:50.810Z,25.4
2018-08-28T16:53:53.262Z,24.5
2018-08-28T16:58:55.715Z,23.8
2018-08-28T17:03:58.119Z,23.3
2018-08-28T17:09:00.924Z,22.8
2018-08-28T17:14:03.072Z,22.4
2018-08-28T17:29:10.334Z,21.3
2018-08-28T17:34:12.768Z,21
2018-08-28T17:44:17.948Z,20.5
2018-08-28T17:59:24.998Z,19.8
2018-08-28T18:04:28.445Z,19.6
2018-08-28T18:09:29.871Z,19.4
2018-08-28T18:14:32.637Z,19.2
2018-08-28T18:19:34.746Z,19.1
2018-08-28T18:24:37.280Z,18.9
2018-08-28T18:29:39.641Z,18.7
2018-08-28T18:34:42.432Z,18.6
2018-08-28T18:39:44.514Z,18.3
2018-08-28T18:44:47.120Z,18.1
2018-08-28T18:49:49.396Z,17.9
2018-08-28T18:59:54.274Z,17.7
2018-08-28T19:04:56.705Z,17.6
2018-08-28T19:20:04.028Z,17.2
2018-08-28T19:25:06.563Z,17
2018-08-28T19:30:08.932Z,16.9
2018-08-28T19:45:16.421Z,16.6
2018-08-28T19:50:18.689Z,16.5
2018-08-28T20:00:23.543Z,16.5
2018-08-28T20:05:25.989Z,16.4
2018-08-28T20:10:28.419Z,16.3
2018-08-28T20:15:30.886Z,16.2
2018-08-28T20:25:35.746Z,16.1
2018-08-28T20:30:38.208Z,16.1
2018-08-28T20:35:40.945Z,16.1
2018-08-28T20:40:43.199Z,16
2018-08-28T20:45:45.581Z,16
2018-08-28T20:50:48.010Z,15.9
2018-08-28T20:55:50.411Z,15.7
2018-08-28T21:00:52.831Z,15.6
2018-08-28T21:10:57.719Z,15.4
2018-08-28T21:16:00.158Z,15.3
2018-08-28T21:21:02.603Z,15.2
2018-08-28T21:36:09.917Z,15
2018-08-28T21:41:12.371Z,14.9
2018-08-28T21:51:17.235Z,15
2018-08-28T21:56:19.847Z,15
2018-08-28T22:01:22.180Z,15
2018-08-28T22:06:24.564Z,15.1
2018-08-28T22:11:30.990Z,15
2018-08-28T22:16:29.461Z,15
2018-08-28T22:21:31.920Z,15
2018-08-28T22:26:34.436Z,15
2018-08-28T22:31:36.911Z,15
2018-08-28T22:41:41.658Z,14.9
2018-08-28T22:46:44.126Z,14.9
2018-08-28T22:51:46.526Z,14.9
2018-08-28T23:01:51.402Z,14.8
2018-08-28T23:06:53.846Z,14.8
2018-08-28T23:11:56.303Z,14.7
2018-08-28T23:16:58.752Z,14.6
2018-08-28T23:22:01.170Z,0
2018-08-28T23:27:03.615Z,14.3
2018-08-28T23:37:08.540Z,14.1
2018-08-28T23:42:10.941Z,14.1
2018-08-28T23:47:13.363Z,14.2
2018-08-28T23:57:18.244Z,14.2
